Time;durP1;ratioP1;P1;durP2;ratioP2;P2;SDS_P1;SDS_P2;PMS_P1;PMS_P2;Temp;Humidity;BMP_temperature;BMP_pressure;BME280_temperature;BME280_humidity;BME280_pressure;Samples;Min_cycle;Max_cycle;Signal;HPM_P1;HPM_P2
2022/05/19 00:01:01;;;;;;;21.42;14.10;;;;;;;19.62;66.01;101657.34;5025159;28;20022;-78
2022/05/19 00:03:22;;;;;;;17.67;14.10;;;;;;;19.60;66.04;101647.81;5012458;28;20121;-77
2022/05/19 00:05:48;;;;;;;20.50;13.93;;;;;;;19.53;66.63;101653.38;5011557;28;20425;-77
2022/05/19 00:08:13;;;;;;;22.40;14.05;;;;;;;19.49;66.74;101650.97;5011761;28;20137;-78
2022/05/19 00:10:38;;;;;;;18.85;13.50;;;;;;;19.47;66.89;101647.56;5009278;28;20045;-77
2022/05/19 00:13:03;;;;;;;24.63;14.25;;;;;;;19.45;67.33;101638.88;5011551;28;20021;-77
2022/05/19 00:15:29;;;;;;;19.38;13.27;;;;;;;19.44;67.38;101639.81;5010842;28;20076;-78
2022/05/19 00:17:54;;;;;;;21.60;13.60;;;;;;;19.42;66.43;101639.88;5010684;28;20145;-78
2022/05/19 00:20:19;;;;;;;23.67;14.02;;;;;;;19.40;66.93;101636.47;5011940;28;20037;-77
2022/05/19 00:22:44;;;;;;;24.02;14.68;;;;;;;19.39;67.17;101632.13;5011347;28;20033;-77
2022/05/19 00:25:10;;;;;;;20.73;13.73;;;;;;;19.37;66.85;101628.69;5010773;28;20025;-78
2022/05/19 00:27:35;;;;;;;19.58;13.63;;;;;;;19.37;66.46;101626.06;5010432;28;20034;-78
2022/05/19 00:30:00;;;;;;;19.23;13.63;;;;;;;19.34;67.31;101623.56;5010776;28;20694;-77
2022/05/19 00:32:25;;;;;;;21.73;13.73;;;;;;;19.32;67.17;101623.66;5010475;28;20018;-77
2022/05/19 00:34:51;;;;;;;19.95;13.73;;;;;;;19.30;67.29;101619.41;5010631;28;20033;-77
2022/05/19 00:37:16;;;;;;;20.88;13.20;;;;;;;19.28;67.39;101621.25;5009500;28;20022;-77
2022/05/19 00:39:41;;;;;;;16.90;13.75;;;;;;;19.25;67.17;101612.56;5012757;28;20022;-78
2022/05/19 00:44:57;;;;;;;19.42;13.95;;;;;;;19.20;67.27;101606.66;5011527;28;20404;-78
2022/05/19 00:47:24;;;;;;;17.25;13.40;;;;;;;19.17;67.34;101606.81;5009608;28;20038;-77
2022/05/19 00:49:51;;;;;;;18.63;13.77;;;;;;;19.16;67.57;101606.91;5011378;28;20105;-77
2022/05/19 00:52:31;;;;;;;21.25;14.02;;;;;;;19.12;67.04;101606.22;5010606;28;20026;-77
2022/05/19 00:55:21;;;;;;;18.95;12.75;;;;;;;19.11;66.74;101594.78;5010738;28;20140;-77
2022/05/19 00:57:53;;;;;;;21.17;12.95;;;;;;;19.07;67.75;101598.50;5009878;28;20575;-77
2022/05/19 01:00:21;;;;;;;21.75;14.10;;;;;;;19.01;67.96;101584.78;5010408;28;20060;-77
2022/05/19 01:02:56;;;;;;;22.30;14.20;;;;;;;18.99;68.13;101591.91;5010919;28;20508;-77
2022/05/19 01:05:28;;;;;;;18.10;13.80;;;;;;;18.95;68.15;101586.81;5010080;28;20033;-78
2022/05/19 01:08:00;;;;;;;19.05;14.18;;;;;;;18.94;68.50;101589.47;5011045;28;20108;-77
2022/05/19 01:10:25;;;;;;;19.27;13.48;;;;;;;18.91;68.58;101595.75;5009957;28;21780;-78
2022/05/19 01:12:52;;;;;;;20.00;14.20;;;;;;;18.90;68.83;101595.81;5011195;28;20030;-77
2022/05/19 01:15:18;;;;;;;20.27;14.43;;;;;;;18.86;68.88;101584.56;5010013;28;20484;-77
2022/05/19 01:17:44;;;;;;;21.67;14.35;;;;;;;18.84;68.67;101591.69;5009297;28;20034;-77
2022/05/19 01:20:15;;;;;;;18.48;13.93;;;;;;;18.80;68.92;101580.44;5008347;28;20400;-77
2022/05/19 01:22:51;;;;;;;20.48;14.05;;;;;;;18.80;68.47;101576.94;5010232;28;20034;-78
2022/05/19 01:25:29;;;;;;;21.15;15.50;;;;;;;18.73;68.23;101565.84;5009424;28;20029;-77
2022/05/19 01:27:55;;;;;;;22.60;15.18;;;;;;;18.66;69.76;101567.94;5009242;28;20034;-77
2022/05/19 01:30:20;;;;;;;20.25;14.80;;;;;;;18.64;69.24;101563.69;5010256;28;20028;-77
2022/05/19 01:32:46;;;;;;;22.42;15.13;;;;;;;18.60;69.47;101549.81;5009233;28;20026;-77
2022/05/19 01:35:11;;;;;;;20.83;15.15;;;;;;;18.56;69.89;101548.22;5010035;28;20048;-77
2022/05/19 01:37:36;;;;;;;21.75;15.40;;;;;;;18.54;70.25;101542.19;5010824;28;20033;-77
2022/05/19 01:40:14;;;;;;;23.08;15.77;;;;;;;18.53;69.57;101545.75;5010192;28;20043;-77
2022/05/19 01:42:58;;;;;;;22.55;15.80;;;;;;;18.53;69.20;101540.47;5009162;28;20047;-77
2022/05/19 01:45:58;;;;;;;22.23;15.18;;;;;;;18.52;69.33;101544.03;5007367;28;20057;-77
2022/05/19 01:48:51;;;;;;;22.52;15.98;;;;;;;18.48;70.50;101538.06;5010633;28;20132;-77
2022/05/19 01:51:35;;;;;;;19.95;15.57;;;;;;;18.47;70.26;101539.00;5009427;28;20041;-77
2022/05/19 01:54:23;;;;;;;26.00;16.35;;;;;;;18.46;70.07;101534.66;5009275;28;20095;-77
2022/05/19 01:56:55;;;;;;;24.90;16.00;;;;;;;18.45;70.45;101540.84;5008259;28;20030;-77
2022/05/19 01:59:28;;;;;;;23.52;16.15;;;;;;;18.44;71.14;101539.13;5011132;28;20029;-77
2022/05/19 02:02:10;;;;;;;23.48;16.48;;;;;;;18.44;70.42;101527.75;5008200;28;20082;-77
2022/05/19 02:04:43;;;;;;;21.65;16.55;;;;;;;18.44;70.75;101533.03;5009191;28;20118;-77
2022/05/19 02:07:12;;;;;;;24.65;15.68;;;;;;;18.41;70.92;101536.63;5009587;28;20136;-77
2022/05/19 02:09:47;;;;;;;20.75;16.33;;;;;;;18.41;70.99;101531.38;5008082;28;20029;-77
2022/05/19 02:12:12;;;;;;;24.10;16.50;;;;;;;18.42;71.44;101529.59;5007997;28;20021;-77
2022/05/19 02:14:46;;;;;;;21.63;16.15;;;;;;;18.43;71.25;101533.94;5009482;28;20736;-77
2022/05/19 02:17:15;;;;;;;23.10;16.05;;;;;;;18.42;71.54;101521.69;5008112;28;20132;-77
2022/05/19 02:19:44;;;;;;;22.48;15.60;;;;;;;18.43;71.32;101526.88;5009021;28;20136;-77
2022/05/19 02:22:13;;;;;;;25.50;15.63;;;;;;;18.44;71.86;101528.59;5009714;28;20079;-77
2022/05/19 02:24:46;;;;;;;23.00;16.02;;;;;;;18.44;71.26;101523.31;5010003;28;20025;-77
2022/05/19 02:27:31;;;;;;;21.15;15.15;;;;;;;18.46;70.53;101521.47;5005587;28;20381;-77
2022/05/19 02:29:57;;;;;;;22.17;15.80;;;;;;;18.45;71.83;101521.53;5007084;28;20030;-77
2022/05/19 02:32:23;;;;;;;20.13;14.45;;;;;;;18.46;71.55;101523.25;5007031;28;20625;-77
2022/05/19 02:34:48;;;;;;;20.38;14.85;;;;;;;18.47;71.45;101519.69;5008601;28;20022;-77
2022/05/19 02:37:13;;;;;;;20.23;14.10;;;;;;;18.45;71.88;101527.66;5008712;28;20041;-77
2022/05/19 02:39:39;;;;;;;19.55;14.77;;;;;;;18.46;72.00;101528.50;5009983;28;20489;-77
2022/05/19 02:42:05;;;;;;;20.48;14.13;;;;;;;18.45;71.80;101532.06;5009159;28;20022;-77
2022/05/19 02:44:30;;;;;;;18.73;14.43;;;;;;;18.46;71.79;101529.38;5009094;28;20036;-77
2022/05/19 02:46:56;;;;;;;18.70;14.20;;;;;;;18.47;71.78;101531.09;5009518;28;20026;-77
2022/05/19 02:49:22;;;;;;;17.90;13.48;;;;;;;18.47;71.15;101541.63;5009725;28;20029;-78
2022/05/19 02:51:47;;;;;;;17.45;14.02;;;;;;;18.48;70.60;101542.47;5007424;28;20026;-78
2022/05/19 02:54:13;;;;;;;17.52;13.75;;;;;;;18.49;70.87;101539.78;5009616;28;20429;-77
2022/05/19 02:56:38;;;;;;;20.23;12.90;;;;;;;18.51;70.66;101547.59;5008965;28;20033;-77
2022/05/19 02:59:04;;;;;;;15.68;12.50;;;;;;;18.52;70.26;101554.56;5009724;28;20461;-78
2022/05/19 03:01:29;;;;;;;17.33;12.70;;;;;;;18.54;69.84;101546.59;5008808;28;20544;-77
2022/05/19 03:03:54;;;;;;;16.20;12.25;;;;;;;18.55;69.97;101546.53;5008199;28;21261;-77
2022/05/19 03:06:19;;;;;;;15.65;11.60;;;;;;;18.57;70.03;101547.31;5010043;28;20109;-77
2022/05/19 03:08:45;;;;;;;17.95;11.95;;;;;;;18.58;69.64;101550.78;5009285;28;20069;-77
2022/05/19 03:11:10;;;;;;;14.65;11.27;;;;;;;18.60;69.75;101554.19;5009600;28;20029;-77
2022/05/19 03:13:35;;;;;;;15.57;11.40;;;;;;;18.60;69.34;101557.72;5009538;28;20527;-77
2022/05/19 03:16:04;;;;;;;15.23;11.63;;;;;;;18.61;69.25;101562.06;5009589;28;20037;-77
2022/05/19 03:18:30;;;;;;;16.98;12.00;;;;;;;18.62;69.79;101571.63;5007199;28;20033;-77
2022/05/19 03:20:55;;;;;;;17.73;11.98;;;;;;;18.64;69.75;101669.94;5008066;28;20030;-77
2022/05/19 03:23:20;;;;;;;18.98;13.40;;;;;;;18.66;70.30;101670.72;5008053;28;20018;-77
2022/05/19 03:25:45;;;;;;;27.25;16.63;;;;;;;18.66;70.45;101694.44;5007575;28;20531;-77
2022/05/19 03:28:14;;;;;;;19.83;15.15;;;;;;;18.63;70.13;101646.31;5007319;28;20034;-77
2022/05/19 03:30:40;;;;;;;20.38;13.10;;;;;;;18.70;68.10;101692.53;5011243;28;20041;-77
2022/05/19 03:33:06;;;;;;;18.25;12.82;;;;;;;18.80;67.62;101698.22;5011378;28;20030;-77
2022/05/19 03:35:31;;;;;;;18.23;12.40;;;;;;;18.91;67.62;101693.31;5011884;28;20033;-77
2022/05/19 03:37:56;;;;;;;15.10;11.45;;;;;;;18.99;67.21;101679.78;5012015;28;20029;-77
2022/05/19 03:40:22;;;;;;;14.70;11.52;;;;;;;19.08;67.36;101710.13;5013298;28;20033;-77
2022/05/19 03:42:47;;;;;;;16.67;11.90;;;;;;;19.13;67.03;101707.28;5012770;28;20025;-77
2022/05/19 03:45:12;;;;;;;16.05;12.32;;;;;;;19.17;66.83;101696.50;5010589;28;20097;-77
2022/05/19 03:47:38;;;;;;;21.85;11.77;;;;;;;19.22;66.88;101691.84;5012844;28;20053;-77
2022/05/19 03:50:04;;;;;;;16.60;12.75;;;;;;;19.26;66.90;101693.44;5011395;28;20037;-77
2022/05/19 03:52:29;;;;;;;17.85;12.18;;;;;;;19.30;67.37;101698.56;5011625;28;20041;-77
2022/05/19 03:54:54;;;;;;;15.25;11.70;;;;;;;19.34;67.54;101694.81;5010849;28;20028;-77
2022/05/19 03:57:21;;;;;;;18.25;12.55;;;;;;;19.36;67.59;101698.22;5011553;28;20088;-77
2022/05/19 03:59:49;;;;;;;13.90;11.65;;;;;;;19.36;67.84;101714.06;5013212;28;20028;-77
2022/05/19 04:02:15;;;;;;;17.00;12.65;;;;;;;19.34;67.95;101714.16;5009841;28;20030;-77
2022/05/19 04:04:40;;;;;;;17.67;12.85;;;;;;;19.35;67.73;101707.94;5010919;28;20026;-77
2022/05/19 04:07:06;;;;;;;17.02;12.18;;;;;;;19.35;68.14;101696.53;5012270;28;20185;-77
2022/05/19 04:09:31;;;;;;;15.68;12.60;;;;;;;19.36;68.04;101709.66;5011150;28;20032;-77
2022/05/19 04:11:57;;;;;;;15.68;11.95;;;;;;;19.37;67.93;101697.31;5009347;28;20121;-77
2022/05/19 04:14:22;;;;;;;17.50;12.52;;;;;;;19.38;69.14;101694.59;5009708;28;20022;-78
2022/05/19 04:16:52;;;;;;;18.67;11.85;;;;;;;19.36;69.81;101703.50;5009777;28;20033;-77
2022/05/19 04:19:19;;;;;;;19.38;12.73;;;;;;;19.36;69.41;101716.69;5012580;28;20036;-77
2022/05/19 04:21:44;;;;;;;18.88;12.13;;;;;;;19.36;69.01;101722.84;5011544;28;20033;-77
2022/05/19 04:24:11;;;;;;;19.33;12.93;;;;;;;19.34;70.32;101702.72;5009942;28;20392;-77
2022/05/19 04:26:36;;;;;;;15.95;12.70;;;;;;;19.32;69.65;101709.88;5010668;28;20595;-77
2022/05/19 04:29:01;;;;;;;19.92;13.52;;;;;;;19.30;70.54;101707.31;5010803;28;20034;-77
2022/05/19 04:31:26;;;;;;;17.73;13.68;;;;;;;19.28;71.19;101709.16;5010154;28;20045;-77
2022/05/19 04:33:52;;;;;;;17.05;13.23;;;;;;;19.26;71.56;101709.25;5007889;28;20045;-77
2022/05/19 04:36:17;;;;;;;20.02;13.18;;;;;;;19.23;71.63;101690.06;5012059;28;20034;-77
2022/05/19 04:38:42;;;;;;;19.23;13.77;;;;;;;19.21;71.90;101690.16;5010460;28;20116;-77
2022/05/19 04:41:07;;;;;;;18.33;13.07;;;;;;;19.20;71.81;101704.25;5009367;28;20033;-77
2022/05/19 04:43:33;;;;;;;17.83;13.20;;;;;;;19.20;72.78;101703.44;5011516;28;20025;-77
2022/05/19 04:45:58;;;;;;;16.70;12.98;;;;;;;19.22;71.88;101706.81;5011163;28;20064;-77
2022/05/19 04:48:25;;;;;;;18.85;13.63;;;;;;;19.21;72.93;101695.41;5011742;28;20045;-77
2022/05/19 04:50:56;;;;;;;22.63;13.60;;;;;;;19.22;72.70;101691.84;5011374;28;20029;-77
2022/05/19 04:53:22;;;;;;;;;;;;;;;19.29;70.16;101681.00;5011350;28;20038;-77
2022/05/19 04:55:48;;;;;;;16.52;12.27;;;;;;;19.26;73.44;101698.69;5008252;28;19985;-77
2022/05/19 04:58:13;;;;;;;14.13;12.43;;;;;;;19.26;72.25;101695.19;5010268;28;20405;-77
2022/05/19 05:00:39;;;;;;;18.77;13.77;;;;;;;19.28;73.38;101703.06;5010615;28;20040;-77
2022/05/19 05:03:06;;;;;;;15.25;12.27;;;;;;;19.27;73.73;101699.53;5011961;28;20485;-77
2022/05/19 05:05:32;;;;;;;17.27;13.18;;;;;;;19.28;74.12;101697.78;5011246;28;20058;-77
2022/05/19 05:07:57;;;;;;;17.38;13.27;;;;;;;19.26;71.82;101703.97;5012449;28;20060;-77
2022/05/19 05:10:23;;;;;;;17.17;12.57;;;;;;;19.25;73.71;101696.13;5012368;28;20037;-77
2022/05/19 05:12:49;;;;;;;16.38;12.60;;;;;;;19.27;73.64;101686.34;5012172;28;20117;-77
2022/05/19 05:15:14;;;;;;;17.13;12.85;;;;;;;19.29;73.32;101688.94;5011795;28;20029;-77
2022/05/19 05:17:39;;;;;;;18.83;13.13;;;;;;;19.29;73.34;101700.31;5011019;28;20048;-77
2022/05/19 05:20:07;;;;;;;17.23;11.80;;;;;;;19.30;71.70;101688.84;5012134;28;20068;-77
2022/05/19 05:22:35;;;;;;;16.17;12.18;;;;;;;19.30;72.45;101686.22;5011250;28;20030;-77
2022/05/19 05:25:02;;;;;;;18.60;12.43;;;;;;;19.32;72.97;101681.72;5011264;28;20389;-77
2022/05/19 05:27:27;;;;;;;18.60;11.45;;;;;;;19.34;71.58;101686.91;5011423;28;20032;-77
2022/05/19 05:29:53;;;;;;;14.07;11.13;;;;;;;19.37;72.64;101686.75;5012200;28;20034;-77
2022/05/19 05:32:18;;;;;;;14.57;12.27;;;;;;;19.37;73.35;101678.84;5008307;28;20033;-77
2022/05/19 05:34:43;;;;;;;18.75;11.57;;;;;;;19.35;72.60;101672.78;5009965;28;20461;-77
2022/05/19 05:37:09;;;;;;;17.05;11.88;;;;;;;19.32;73.08;101671.16;5011878;28;20025;-77
2022/05/19 05:39:34;;;;;;;13.02;10.48;;;;;;;19.30;72.08;101653.72;5011933;28;20078;-77
2022/05/19 05:41:59;;;;;;;13.38;11.00;;;;;;;19.28;72.34;101642.38;5011612;28;20489;-77
2022/05/19 05:44:24;;;;;;;13.93;10.38;;;;;;;19.28;72.87;101643.22;5011562;28;20025;-77
2022/05/19 05:46:50;;;;;;;12.02;10.10;;;;;;;19.29;73.22;101646.72;5011738;28;20335;-77
2022/05/19 05:49:15;;;;;;;13.15;10.05;;;;;;;19.29;72.86;101655.47;5012059;28;20046;-77
2022/05/19 05:51:40;;;;;;;13.10;9.77;;;;;;;19.30;73.28;101653.72;5011603;28;20041;-77
2022/05/19 05:54:06;;;;;;;11.32;9.20;;;;;;;19.29;72.38;101638.81;5010604;28;20381;-77
2022/05/19 05:56:32;;;;;;;10.25;8.40;;;;;;;19.25;72.64;101638.94;5011722;28;20075;-77
2022/05/19 05:58:57;;;;;;;7.93;6.60;;;;;;;19.22;70.87;101633.81;5011827;28;20504;-78
2022/05/19 06:01:23;;;;;;;8.73;6.68;;;;;;;19.20;72.64;101606.66;5011554;28;20108;-77
2022/05/19 06:03:49;;;;;;;7.53;5.10;;;;;;;19.13;71.84;101589.41;5011308;28;20358;-77
2022/05/19 06:06:15;;;;;;;8.90;5.07;;;;;;;19.08;72.59;101542.19;5011392;28;20113;-78
2022/05/19 06:08:41;;;;;;;10.98;6.13;;;;;;;19.02;74.60;101568.03;5011483;28;20592;-77
2022/05/19 06:11:07;;;;;;;10.75;7.43;;;;;;;18.93;74.02;101608.84;5011442;28;20030;-77
2022/05/19 06:13:33;;;;;;;9.32;6.30;;;;;;;18.80;73.74;101584.84;5011361;28;20116;-77
2022/05/19 06:15:58;;;;;;;8.45;5.97;;;;;;;18.78;75.10;101563.00;5011525;28;20103;-77
2022/05/19 06:18:25;;;;;;;9.68;6.20;;;;;;;18.77;74.79;101563.94;5011392;28;20052;-77
2022/05/19 06:20:51;;;;;;;8.00;6.00;;;;;;;18.79;74.89;101584.00;5011025;28;20029;-77
2022/05/19 06:23:17;;;;;;;8.20;5.70;;;;;;;18.81;73.80;101586.56;5010913;28;20022;-77
2022/05/19 06:25:44;;;;;;;7.40;5.32;;;;;;;18.85;74.37;101601.31;5011126;28;20092;-77
2022/05/19 06:28:09;;;;;;;6.93;5.20;;;;;;;18.92;75.61;101615.03;5011429;28;20037;-78
2022/05/19 06:30:34;;;;;;;8.63;5.60;;;;;;;18.98;75.56;101619.19;5011352;28;20445;-77
2022/05/19 06:33:00;;;;;;;7.95;5.78;;;;;;;19.05;76.22;101615.34;5010893;28;20037;-77
2022/05/19 06:35:28;;;;;;;8.35;5.72;;;;;;;19.09;75.55;101615.09;5010405;28;20022;-77
2022/05/19 06:37:54;;;;;;;7.20;5.57;;;;;;;19.13;76.32;101599.97;5011245;28;20452;-77
2022/05/19 06:40:21;;;;;;;7.35;5.78;;;;;;;19.16;75.93;101591.91;5011345;28;20046;-77
2022/05/19 06:42:47;;;;;;;11.55;6.20;;;;;;;19.18;76.49;101584.78;5010815;28;20113;-77
2022/05/19 06:45:18;;;;;;;10.20;6.50;;;;;;;19.21;76.37;101587.28;5010909;28;20108;-77
2022/05/19 06:47:43;;;;;;;10.52;6.45;;;;;;;19.24;77.01;101588.88;5011119;28;20042;-77
2022/05/19 06:50:10;;;;;;;9.75;6.30;;;;;;;19.27;76.70;101580.81;5011226;28;20036;-77
2022/05/19 06:52:43;;;;;;;9.77;7.05;;;;;;;19.29;76.69;101586.03;5010918;28;20424;-77
2022/05/19 06:55:10;;;;;;;9.48;7.60;;;;;;;19.31;76.84;101589.44;5010711;28;20436;-77
2022/05/19 06:57:36;;;;;;;9.15;7.45;;;;;;;19.34;76.49;101582.22;5011153;28;20388;-77
2022/05/19 07:00:03;;;;;;;11.85;7.75;;;;;;;19.36;76.10;101574.22;5011082;28;20029;-77
2022/05/19 07:02:29;;;;;;;10.27;8.60;;;;;;;19.38;76.45;101577.63;5010804;28;20030;-77
2022/05/19 07:04:54;;;;;;;12.27;8.32;;;;;;;19.39;76.70;101576.72;5012223;28;20370;-77
2022/05/19 07:07:20;;;;;;;11.05;8.82;;;;;;;19.40;75.66;101573.97;5014954;28;20017;-77
2022/05/19 07:09:45;;;;;;;10.68;8.65;;;;;;;19.42;76.59;101582.69;5016359;28;20064;-77
2022/05/19 07:12:11;;;;;;;10.70;8.63;;;;;;;19.48;76.55;101589.41;5014900;28;20042;-79
2022/05/19 07:14:37;;;;;;;10.65;9.00;;;;;;;19.50;75.89;101592.00;5014727;28;20022;-79
2022/05/19 07:17:03;;;;;;;10.63;9.52;;;;;;;19.54;75.63;101590.91;5015093;28;20029;-79
2022/05/19 07:22:21;;;;;;;10.80;9.00;;;;;;;19.59;75.01;101580.09;5014177;28;20049;-79
2022/05/19 07:24:47;;;;;;;12.07;9.35;;;;;;;19.62;75.00;101577.31;5014603;28;20104;-79
2022/05/19 07:27:12;;;;;;;13.02;9.95;;;;;;;19.63;74.72;101573.75;5012717;28;20124;-79
2022/05/19 07:29:39;;;;;;;14.27;9.00;;;;;;;19.64;75.41;101565.72;5014069;28;20026;-76
2022/05/19 07:32:04;;;;;;;11.10;9.20;;;;;;;19.65;75.10;101556.00;5014565;28;20025;-76
2022/05/19 07:34:32;;;;;;;12.70;9.40;;;;;;;19.68;75.54;101545.28;5014693;28;20022;-79
2022/05/19 07:36:58;;;;;;;12.00;8.88;;;;;;;19.71;74.62;101524.03;5017672;28;20036;-79
2022/05/19 07:39:27;;;;;;;10.27;8.60;;;;;;;19.72;74.69;101525.72;5014417;28;20030;-79
2022/05/19 07:41:55;;;;;;;11.10;8.80;;;;;;;19.76;75.28;101516.72;5014269;28;20030;-79
2022/05/19 07:44:22;;;;;;;12.57;9.48;;;;;;;19.81;74.59;101540.22;5013098;28;20052;-79
2022/05/19 07:46:48;;;;;;;10.43;9.18;;;;;;;19.88;75.30;101567.19;5015493;28;20048;-79
2022/05/19 07:49:14;;;;;;;11.23;9.05;;;;;;;19.95;74.59;101589.69;5013871;28;20032;-79
2022/05/19 07:51:40;;;;;;;11.48;10.27;;;;;;;20.00;74.89;101599.06;5014286;28;20037;-79
2022/05/19 07:54:10;;;;;;;10.52;9.27;;;;;;;20.04;74.14;101598.91;5014471;28;20022;-79
2022/05/19 07:56:35;;;;;;;10.85;9.60;;;;;;;20.08;73.82;101589.88;5014488;28;20025;-79
2022/05/19 07:59:01;;;;;;;10.90;9.18;;;;;;;20.11;74.63;101590.56;5013806;28;20037;-79
2022/05/19 08:01:27;;;;;;;11.93;9.93;;;;;;;20.15;75.02;101584.16;5014029;28;20029;-79
2022/05/19 08:03:53;;;;;;;14.75;10.75;;;;;;;20.20;74.09;101580.44;5014995;28;20552;-79
2022/05/19 08:06:18;;;;;;;12.75;10.93;;;;;;;20.23;74.62;101574.97;5013713;28;20109;-79
2022/05/19 08:08:44;;;;;;;12.45;11.18;;;;;;;20.24;72.91;101571.41;5015278;28;20105;-79
2022/05/19 08:11:10;;;;;;;15.13;11.40;;;;;;;20.26;72.67;101567.72;5013365;28;20022;-78
2022/05/19 08:16:25;;;;;;;14.65;11.68;;;;;;;20.36;71.51;101560.16;5001243;28;20050;-79
2022/05/19 08:18:50;;;;;;;13.10;11.45;;;;;;;20.44;73.72;101557.94;5013064;28;20099;-76
2022/05/19 08:21:16;;;;;;;13.55;10.93;;;;;;;20.54;71.84;101544.19;5012095;28;20480;-77
2022/05/19 08:23:47;;;;;;;12.98;10.23;;;;;;;20.60;70.24;101549.13;5012813;28;20025;-77
2022/05/19 08:26:13;;;;;;;14.43;9.95;;;;;;;20.67;70.06;101545.19;5012898;28;20076;-77
2022/05/19 08:28:41;;;;;;;12.15;9.23;;;;;;;20.71;68.89;101541.44;5011472;28;20033;-78
2022/05/19 08:31:19;;;;;;;11.35;9.40;;;;;;;20.83;69.54;101547.00;5012673;28;20025;-78
2022/05/19 08:33:46;;;;;;;11.25;9.23;;;;;;;20.92;69.37;101557.03;5013262;28;20021;-78
2022/05/19 08:36:12;;;;;;;13.27;8.70;;;;;;;21.01;67.22;101564.41;5012589;28;20036;-79
2022/05/19 08:38:39;;;;;;;10.35;8.38;;;;;;;21.12;67.23;101571.72;5012935;28;20018;-78
2022/05/19 08:41:07;;;;;;;11.07;8.63;;;;;;;21.25;68.04;101571.88;5012721;28;20092;-78
2022/05/19 08:43:46;;;;;;;8.52;7.60;;;;;;;21.35;66.53;101557.13;5011396;28;20481;-79
2022/05/19 08:46:19;;;;;;;10.55;8.18;;;;;;;21.47;66.96;101568.78;5012405;28;20054;-79
2022/05/19 08:48:46;;;;;;;9.38;7.38;;;;;;;21.58;65.60;101560.19;5011780;28;20042;-78
2022/05/19 08:51:13;;;;;;;8.45;7.05;;;;;;;21.71;64.96;101556.81;5012360;28;20073;-78
2022/05/19 08:53:42;;;;;;;10.43;7.57;;;;;;;21.83;66.10;101556.91;5012212;28;20476;-78
2022/05/19 08:56:31;;;;;;;9.43;7.88;;;;;;;21.97;65.55;101552.53;5012291;28;20029;-78
2022/05/19 08:59:18;;;;;;;10.45;6.97;;;;;;;22.02;62.66;101554.91;5013543;28;20061;-78
2022/05/19 09:01:52;;;;;;;8.98;7.80;;;;;;;22.09;63.84;101545.63;5007793;28;20068;-79
2022/05/19 09:04:59;;;;;;;8.85;7.10;;;;;;;22.18;63.17;101545.06;5005684;28;20060;-79
2022/05/19 09:10:30;;;;;;;7.55;6.28;;;;;;;22.39;61.06;101536.63;5006600;28;20067;-79
2022/05/19 09:13:30;;;;;;;10.68;6.25;;;;;;;22.50;62.04;101534.19;5006487;28;20033;-79
2022/05/19 09:15:55;;;;;;;8.48;5.97;;;;;;;22.66;60.94;101530.53;4970814;28;20049;-79
2022/05/19 09:18:31;;;;;;;9.30;6.68;;;;;;;22.80;61.07;101530.44;5005810;28;20034;-79
2022/05/19 09:20:57;;;;;;;9.57;6.13;;;;;;;22.88;58.94;101528.16;5005456;28;20048;-79
2022/05/19 09:23:24;;;;;;;7.88;5.78;;;;;;;22.94;58.67;101528.66;5006001;28;20087;-79
2022/05/19 09:25:57;;;;;;;6.95;5.90;;;;;;;22.99;58.27;101531.88;5005904;28;20029;-79
2022/05/19 09:28:23;;;;;;;8.48;5.72;;;;;;;23.06;58.37;101525.19;5005961;28;20038;-79
2022/05/19 09:30:52;;;;;;;7.15;6.20;;;;;;;23.16;59.17;101520.97;5005746;28;20040;-79
2022/05/19 09:33:47;;;;;;;6.28;5.07;;;;;;;23.31;58.75;101526.19;5006082;28;20026;-79
2022/05/19 09:36:14;;;;;;;9.75;5.28;;;;;;;23.45;58.98;101518.13;5003546;28;20096;-79
2022/05/19 09:38:49;;;;;;;6.35;4.82;;;;;;;23.60;56.96;101515.34;5003891;28;20032;-79
2022/05/19 09:41:26;;;;;;;6.68;4.82;;;;;;;23.74;56.29;101511.72;5005071;28;20034;-78
2022/05/19 09:43:53;;;;;;;4.97;4.35;;;;;;;23.77;53.96;101514.16;5006095;28;20038;-78
2022/05/19 09:46:19;;;;;;;10.27;4.85;;;;;;;23.83;54.94;101515.50;5004806;28;20033;-78
2022/05/19 09:48:57;;;;;;;8.80;4.47;;;;;;;23.88;54.99;101518.69;5005520;28;20081;-78
2022/05/19 09:51:31;;;;;;;6.32;4.50;;;;;;;23.94;55.38;101519.09;5006848;28;20068;-79
2022/05/19 09:53:59;;;;;;;6.20;4.15;;;;;;;23.95;53.90;101519.94;5005661;28;20029;-80
2022/05/19 09:56:37;;;;;;;8.23;3.85;;;;;;;23.99;55.20;101513.47;5006179;28;20125;-81
2022/05/19 09:59:07;;;;;;;6.75;4.25;;;;;;;24.05;55.27;101518.38;5003136;28;20121;-79
2022/05/19 10:01:39;;;;;;;6.35;4.65;;;;;;;24.09;55.27;101514.50;5003644;28;20033;-79
2022/05/19 10:04:14;;;;;;;5.80;3.97;;;;;;;24.16;54.38;101506.09;5004338;28;20022;-78
2022/05/19 10:06:56;;;;;;;6.45;3.95;;;;;;;24.19;54.35;101498.72;5003277;28;20041;-78
2022/05/19 10:09:29;;;;;;;5.93;4.28;;;;;;;24.27;55.11;101500.81;5004934;28;20123;-79
2022/05/19 10:12:05;;;;;;;6.20;4.22;;;;;;;24.33;54.93;101497.72;5005927;28;20515;-78
2022/05/19 10:14:32;;;;;;;4.80;3.45;;;;;;;24.42;53.88;101487.38;5005031;28;20032;-80
2022/05/19 10:17:23;;;;;;;4.90;3.70;;;;;;;24.45;53.95;101476.50;5004393;28;20030;-79
2022/05/19 10:20:10;;;;;;;7.25;3.63;;;;;;;24.49;53.41;101469.97;5004619;28;20116;-79
2022/05/19 10:23:20;;;;;;;6.35;4.20;;;;;;;24.55;53.68;101457.06;5004579;28;20128;-79
2022/05/19 10:26:07;;;;;;;5.55;3.70;;;;;;;24.60;52.37;101442.56;4993841;28;20046;-79
2022/05/19 10:32:20;;;;;;;5.47;4.35;;;;;;;24.73;52.66;101439.88;5004184;28;20076;-79
2022/05/19 10:35:12;;;;;;;6.88;3.85;;;;;;;24.80;51.80;101438.41;5003905;28;20487;-79
2022/05/19 10:38:03;;;;;;;7.50;3.67;;;;;;;24.90;50.57;101439.41;5004291;28;20030;-78
2022/05/19 10:40:44;;;;;;;6.10;3.85;;;;;;;24.98;50.81;101442.31;4996422;28;20038;-79
2022/05/19 10:43:23;;;;;;;5.45;3.75;;;;;;;25.07;50.42;101446.06;5005083;28;20041;-79
2022/05/19 10:45:50;;;;;;;5.70;3.70;;;;;;;25.14;47.25;101443.78;5005803;28;20036;-79
2022/05/19 10:48:37;;;;;;;5.00;3.67;;;;;;;25.26;50.72;101444.63;5005472;28;20559;-79
2022/05/19 10:51:14;;;;;;;5.00;3.50;;;;;;;25.38;49.73;101442.81;5005554;28;20702;-79
2022/05/19 10:53:51;;;;;;;6.57;3.60;;;;;;;25.48;48.40;101453.63;5005710;28;20080;-79
2022/05/19 10:56:28;;;;;;;4.53;3.50;;;;;;;25.54;46.89;101447.78;5005253;28;20056;-79
2022/05/19 10:59:03;;;;;;;5.97;3.35;;;;;;;25.58;47.30;101438.56;5005095;28;20042;-79
2022/05/19 11:01:40;;;;;;;6.32;3.58;;;;;;;25.62;48.21;101436.53;5004882;28;20037;-79
2022/05/19 11:04:13;;;;;;;7.70;3.40;;;;;;;25.63;47.24;101425.75;5005346;28;20034;-79
2022/05/19 11:07:16;;;;;;;6.07;3.30;;;;;;;25.62;48.03;101432.03;5005207;28;20034;-79
2022/05/19 11:10:07;;;;;;;6.70;3.78;;;;;;;25.65;47.39;101434.47;5006336;28;20036;-79
2022/05/19 11:12:45;;;;;;;7.78;3.33;;;;;;;25.68;48.42;101433.34;5005545;28;20040;-79
2022/05/19 11:15:21;;;;;;;9.40;3.50;;;;;;;25.66;47.77;101432.63;5004927;28;20029;-79
2022/05/19 11:17:48;;;;;;;5.20;3.60;;;;;;;25.58;47.30;101438.56;5004628;28;20025;-79
2022/05/19 11:20:25;;;;;;;4.63;3.17;;;;;;;25.51;47.60;101437.41;5004403;28;20774;-79
2022/05/19 11:22:56;;;;;;;3.72;2.92;;;;;;;25.38;46.39;101417.00;5004370;28;20448;-79
2022/05/19 11:28:25;;;;;;;6.78;3.15;;;;;;;25.18;46.71;101420.44;5006345;28;20049;-79
2022/05/19 11:31:00;;;;;;;7.05;3.15;;;;;;;25.08;48.15;101434.44;5005048;28;20053;-79
2022/05/19 11:33:30;;;;;;;4.97;2.90;;;;;;;25.00;47.95;101435.06;5004453;28;20087;-79
2022/05/19 11:36:05;;;;;;;4.82;3.13;;;;;;;24.91;48.07;101435.78;5004184;28;20033;-79
2022/05/19 11:38:41;;;;;;;5.07;3.20;;;;;;;24.84;48.60;101447.84;5005034;28;20244;-79
2022/05/19 11:41:29;;;;;;;7.10;3.00;;;;;;;24.76;48.71;101444.97;5004887;28;20041;-79
2022/05/19 11:44:20;;;;;;;8.10;3.10;;;;;;;24.70;48.70;101444.44;5005418;28;20485;-79